sensor_id;sensor_type;location;lat;lon;timestamp;P1;durP1;ratioP1;P2;durP2;ratioP2
49412;SDS011;35493;50.276;9.372;2023-02-28T00:02:05;5.68;;;2.00;;
49412;SDS011;35493;50.276;9.372;2023-02-28T00:04:32;5.60;;;2.15;;
49412;SDS011;35493;50.276;9.372;2023-02-28T00:06:59;4.85;;;2.03;;
49412;SDS011;35493;50.276;9.372;2023-02-28T00:09:30;3.50;;;2.15;;
49412;SDS011;35493;50.276;9.372;2023-02-28T00:11:57;3.63;;;1.80;;
49412;SDS011;35493;50.276;9.372;2023-02-28T00:14:31;4.68;;;2.42;;
49412;SDS011;35493;50.276;9.372;2023-02-28T00:17:05;3.65;;;1.95;;
49412;SDS011;35493;50.276;9.372;2023-02-28T00:19:34;3.92;;;2.10;;
49412;SDS011;35493;50.276;9.372;2023-02-28T00:22:01;6.50;;;2.05;;
49412;SDS011;35493;50.276;9.372;2023-02-28T00:24:28;3.92;;;2.17;;
49412;SDS011;35493;50.276;9.372;2023-02-28T00:26:55;5.63;;;2.13;;
49412;SDS011;35493;50.276;9.372;2023-02-28T00:29:21;5.72;;;2.38;;
49412;SDS011;35493;50.276;9.372;2023-02-28T00:31:48;4.03;;;2.20;;
49412;SDS011;35493;50.276;9.372;2023-02-28T00:34:17;3.50;;;2.10;;
49412;SDS011;35493;50.276;9.372;2023-02-28T00:36:44;4.70;;;1.98;;
49412;SDS011;35493;50.276;9.372;2023-02-28T00:39:11;4.50;;;2.13;;
49412;SDS011;35493;50.276;9.372;2023-02-28T00:41:41;4.32;;;2.15;;
49412;SDS011;35493;50.276;9.372;2023-02-28T00:44:08;4.83;;;2.03;;
49412;SDS011;35493;50.276;9.372;2023-02-28T00:46:35;3.35;;;1.85;;
49412;SDS011;35493;50.276;9.372;2023-02-28T00:49:02;4.82;;;2.22;;
49412;SDS011;35493;50.276;9.372;2023-02-28T00:51:36;5.43;;;1.92;;
49412;SDS011;35493;50.276;9.372;2023-02-28T00:54:03;3.58;;;2.08;;
49412;SDS011;35493;50.276;9.372;2023-02-28T00:56:29;5.80;;;2.70;;
49412;SDS011;35493;50.276;9.372;2023-02-28T00:58:56;4.05;;;2.00;;
49412;SDS011;35493;50.276;9.372;2023-02-28T01:01:23;5.53;;;2.50;;
49412;SDS011;35493;50.276;9.372;2023-02-28T01:03:50;4.50;;;2.00;;
49412;SDS011;35493;50.276;9.372;2023-02-28T01:06:19;4.80;;;2.05;;
49412;SDS011;35493;50.276;9.372;2023-02-28T01:08:47;4.90;;;2.28;;
49412;SDS011;35493;50.276;9.372;2023-02-28T01:11:15;4.13;;;2.03;;
49412;SDS011;35493;50.276;9.372;2023-02-28T01:13:45;5.18;;;2.00;;
49412;SDS011;35493;50.276;9.372;2023-02-28T01:16:12;4.50;;;2.50;;
49412;SDS011;35493;50.276;9.372;2023-02-28T01:18:39;4.03;;;2.30;;
49412;SDS011;35493;50.276;9.372;2023-02-28T01:21:11;6.20;;;2.40;;
49412;SDS011;35493;50.276;9.372;2023-02-28T01:23:40;3.47;;;2.13;;
49412;SDS011;35493;50.276;9.372;2023-02-28T01:26:10;4.50;;;2.17;;
49412;SDS011;35493;50.276;9.372;2023-02-28T01:28:38;4.53;;;2.30;;
49412;SDS011;35493;50.276;9.372;2023-02-28T01:31:06;4.03;;;2.13;;
49412;SDS011;35493;50.276;9.372;2023-02-28T01:33:35;3.55;;;2.05;;
49412;SDS011;35493;50.276;9.372;2023-02-28T01:36:03;4.68;;;2.35;;
49412;SDS011;35493;50.276;9.372;2023-02-28T01:38:30;5.05;;;2.28;;
49412;SDS011;35493;50.276;9.372;2023-02-28T01:40:57;5.03;;;2.10;;
49412;SDS011;35493;50.276;9.372;2023-02-28T01:43:27;5.22;;;2.28;;
49412;SDS011;35493;50.276;9.372;2023-02-28T01:45:57;4.65;;;2.08;;
49412;SDS011;35493;50.276;9.372;2023-02-28T01:48:32;3.90;;;2.05;;
49412;SDS011;35493;50.276;9.372;2023-02-28T01:51:02;5.68;;;2.75;;
49412;SDS011;35493;50.276;9.372;2023-02-28T01:56:01;5.40;;;1.98;;
49412;SDS011;35493;50.276;9.372;2023-02-28T01:58:33;4.45;;;2.15;;
49412;SDS011;35493;50.276;9.372;2023-02-28T02:01:02;4.25;;;2.10;;
49412;SDS011;35493;50.276;9.372;2023-02-28T02:03:29;3.95;;;2.10;;
49412;SDS011;35493;50.276;9.372;2023-02-28T02:05:57;4.70;;;2.00;;
49412;SDS011;35493;50.276;9.372;2023-02-28T02:08:25;3.72;;;1.70;;
49412;SDS011;35493;50.276;9.372;2023-02-28T02:10:54;5.00;;;2.20;;
49412;SDS011;35493;50.276;9.372;2023-02-28T02:13:29;3.72;;;1.80;;
49412;SDS011;35493;50.276;9.372;2023-02-28T02:16:21;3.40;;;1.98;;
49412;SDS011;35493;50.276;9.372;2023-02-28T02:18:58;7.40;;;2.58;;
49412;SDS011;35493;50.276;9.372;2023-02-28T02:21:48;4.40;;;2.00;;
49412;SDS011;35493;50.276;9.372;2023-02-28T02:24:43;3.85;;;2.08;;
49412;SDS011;35493;50.276;9.372;2023-02-28T02:30:43;3.20;;;1.90;;
49412;SDS011;35493;50.276;9.372;2023-02-28T02:33:33;3.60;;;2.00;;
49412;SDS011;35493;50.276;9.372;2023-02-28T02:36:27;3.05;;;1.80;;
49412;SDS011;35493;50.276;9.372;2023-02-28T02:38:58;4.05;;;2.20;;
49412;SDS011;35493;50.276;9.372;2023-02-28T02:41:33;3.47;;;1.73;;
49412;SDS011;35493;50.276;9.372;2023-02-28T02:44:05;4.35;;;1.90;;
49412;SDS011;35493;50.276;9.372;2023-02-28T02:46:39;4.15;;;1.95;;
49412;SDS011;35493;50.276;9.372;2023-02-28T02:49:09;5.72;;;1.88;;
49412;SDS011;35493;50.276;9.372;2023-02-28T02:51:42;4.30;;;1.80;;
49412;SDS011;35493;50.276;9.372;2023-02-28T02:54:13;3.83;;;2.08;;
49412;SDS011;35493;50.276;9.372;2023-02-28T02:56:44;4.05;;;2.05;;
49412;SDS011;35493;50.276;9.372;2023-02-28T02:59:14;3.97;;;2.10;;
49412;SDS011;35493;50.276;9.372;2023-02-28T03:01:48;3.35;;;1.73;;
49412;SDS011;35493;50.276;9.372;2023-02-28T03:04:16;3.42;;;1.80;;
49412;SDS011;35493;50.276;9.372;2023-02-28T03:06:47;3.80;;;1.73;;
49412;SDS011;35493;50.276;9.372;2023-02-28T03:09:21;2.75;;;1.63;;
49412;SDS011;35493;50.276;9.372;2023-02-28T03:11:49;3.45;;;1.80;;
49412;SDS011;35493;50.276;9.372;2023-02-28T03:14:22;3.70;;;1.50;;
49412;SDS011;35493;50.276;9.372;2023-02-28T03:16:59;3.83;;;1.77;;
49412;SDS011;35493;50.276;9.372;2023-02-28T03:19:45;5.20;;;2.03;;
49412;SDS011;35493;50.276;9.372;2023-02-28T03:22:23;6.95;;;2.45;;
49412;SDS011;35493;50.276;9.372;2023-02-28T03:25:06;6.43;;;2.80;;
49412;SDS011;35493;50.276;9.372;2023-02-28T03:27:38;4.93;;;2.22;;
49412;SDS011;35493;50.276;9.372;2023-02-28T03:30:09;6.90;;;2.63;;
49412;SDS011;35493;50.276;9.372;2023-02-28T03:32:40;5.55;;;2.83;;
49412;SDS011;35493;50.276;9.372;2023-02-28T03:35:16;6.32;;;2.45;;
49412;SDS011;35493;50.276;9.372;2023-02-28T03:37:49;5.15;;;2.30;;
49412;SDS011;35493;50.276;9.372;2023-02-28T03:40:19;6.38;;;2.70;;
49412;SDS011;35493;50.276;9.372;2023-02-28T03:42:50;5.78;;;3.05;;
49412;SDS011;35493;50.276;9.372;2023-02-28T03:45:22;6.00;;;2.50;;
49412;SDS011;35493;50.276;9.372;2023-02-28T03:47:54;5.73;;;2.53;;
49412;SDS011;35493;50.276;9.372;2023-02-28T03:50:27;7.13;;;2.47;;
49412;SDS011;35493;50.276;9.372;2023-02-28T03:53:02;3.65;;;2.10;;
49412;SDS011;35493;50.276;9.372;2023-02-28T03:55:36;3.78;;;1.98;;
49412;SDS011;35493;50.276;9.372;2023-02-28T03:58:07;4.10;;;2.10;;
49412;SDS011;35493;50.276;9.372;2023-02-28T04:00:43;4.53;;;2.10;;
49412;SDS011;35493;50.276;9.372;2023-02-28T04:03:13;4.72;;;1.92;;
49412;SDS011;35493;50.276;9.372;2023-02-28T04:05:45;4.68;;;2.00;;
49412;SDS011;35493;50.276;9.372;2023-02-28T04:08:17;4.10;;;1.90;;
49412;SDS011;35493;50.276;9.372;2023-02-28T04:10:45;5.55;;;1.85;;
49412;SDS011;35493;50.276;9.372;2023-02-28T04:13:17;3.85;;;1.70;;
49412;SDS011;35493;50.276;9.372;2023-02-28T04:15:43;4.82;;;1.90;;
49412;SDS011;35493;50.276;9.372;2023-02-28T04:18:10;5.25;;;1.90;;
49412;SDS011;35493;50.276;9.372;2023-02-28T04:20:37;4.63;;;1.80;;
49412;SDS011;35493;50.276;9.372;2023-02-28T04:23:04;3.33;;;1.65;;
49412;SDS011;35493;50.276;9.372;2023-02-28T04:25:32;3.92;;;1.65;;
49412;SDS011;35493;50.276;9.372;2023-02-28T04:27:59;3.45;;;1.73;;
49412;SDS011;35493;50.276;9.372;2023-02-28T04:30:26;4.22;;;1.85;;
49412;SDS011;35493;50.276;9.372;2023-02-28T04:32:54;3.08;;;1.73;;
49412;SDS011;35493;50.276;9.372;2023-02-28T04:35:21;4.50;;;1.85;;
49412;SDS011;35493;50.276;9.372;2023-02-28T04:37:48;2.92;;;1.50;;
49412;SDS011;35493;50.276;9.372;2023-02-28T04:40:15;4.55;;;1.88;;
49412;SDS011;35493;50.276;9.372;2023-02-28T04:42:44;3.85;;;1.90;;
49412;SDS011;35493;50.276;9.372;2023-02-28T04:45:10;4.43;;;2.00;;
49412;SDS011;35493;50.276;9.372;2023-02-28T04:47:37;4.47;;;2.00;;
49412;SDS011;35493;50.276;9.372;2023-02-28T04:50:05;4.70;;;2.25;;
49412;SDS011;35493;50.276;9.372;2023-02-28T04:52:32;3.33;;;2.05;;
49412;SDS011;35493;50.276;9.372;2023-02-28T04:54:59;2.88;;;1.80;;
49412;SDS011;35493;50.276;9.372;2023-02-28T04:57:26;4.95;;;2.20;;
49412;SDS011;35493;50.276;9.372;2023-02-28T04:59:54;3.08;;;1.90;;
49412;SDS011;35493;50.276;9.372;2023-02-28T05:02:21;3.65;;;1.90;;
49412;SDS011;35493;50.276;9.372;2023-02-28T05:04:49;4.20;;;1.63;;
49412;SDS011;35493;50.276;9.372;2023-02-28T05:07:15;6.18;;;2.05;;
49412;SDS011;35493;50.276;9.372;2023-02-28T05:09:42;3.45;;;1.67;;
49412;SDS011;35493;50.276;9.372;2023-02-28T05:12:09;3.55;;;1.55;;
49412;SDS011;35493;50.276;9.372;2023-02-28T05:14:36;4.75;;;2.10;;
49412;SDS011;35493;50.276;9.372;2023-02-28T05:17:04;4.85;;;1.98;;
49412;SDS011;35493;50.276;9.372;2023-02-28T05:19:31;5.57;;;2.50;;
49412;SDS011;35493;50.276;9.372;2023-02-28T05:21:58;5.03;;;2.10;;
49412;SDS011;35493;50.276;9.372;2023-02-28T05:24:25;4.65;;;1.77;;
49412;SDS011;35493;50.276;9.372;2023-02-28T05:26:53;3.50;;;1.80;;
49412;SDS011;35493;50.276;9.372;2023-02-28T05:29:20;3.42;;;1.63;;
49412;SDS011;35493;50.276;9.372;2023-02-28T05:31:47;4.65;;;1.90;;
49412;SDS011;35493;50.276;9.372;2023-02-28T05:34:16;4.22;;;1.90;;
49412;SDS011;35493;50.276;9.372;2023-02-28T05:36:43;3.75;;;1.75;;
49412;SDS011;35493;50.276;9.372;2023-02-28T05:39:10;3.80;;;1.60;;
49412;SDS011;35493;50.276;9.372;2023-02-28T05:41:41;3.47;;;1.70;;
49412;SDS011;35493;50.276;9.372;2023-02-28T05:44:08;4.18;;;2.03;;
49412;SDS011;35493;50.276;9.372;2023-02-28T05:46:35;4.53;;;1.70;;
49412;SDS011;35493;50.276;9.372;2023-02-28T05:49:03;3.28;;;1.70;;
49412;SDS011;35493;50.276;9.372;2023-02-28T05:51:31;3.50;;;1.75;;
49412;SDS011;35493;50.276;9.372;2023-02-28T05:53:59;4.00;;;1.70;;
49412;SDS011;35493;50.276;9.372;2023-02-28T05:56:27;4.93;;;2.10;;
49412;SDS011;35493;50.276;9.372;2023-02-28T05:58:54;4.28;;;1.85;;
49412;SDS011;35493;50.276;9.372;2023-02-28T06:01:24;4.20;;;2.00;;
49412;SDS011;35493;50.276;9.372;2023-02-28T06:04:00;4.15;;;1.77;;
49412;SDS011;35493;50.276;9.372;2023-02-28T06:06:29;4.82;;;1.77;;
49412;SDS011;35493;50.276;9.372;2023-02-28T06:08:57;5.13;;;1.67;;
49412;SDS011;35493;50.276;9.372;2023-02-28T06:11:24;4.97;;;2.10;;
49412;SDS011;35493;50.276;9.372;2023-02-28T06:13:53;4.50;;;1.77;;
49412;SDS011;35493;50.276;9.372;2023-02-28T06:16:20;6.15;;;2.17;;
49412;SDS011;35493;50.276;9.372;2023-02-28T06:18:47;6.63;;;2.47;;
49412;SDS011;35493;50.276;9.372;2023-02-28T06:21:14;5.57;;;2.20;;
49412;SDS011;35493;50.276;9.372;2023-02-28T06:23:41;4.50;;;2.13;;
49412;SDS011;35493;50.276;9.372;2023-02-28T06:26:10;5.22;;;2.28;;
49412;SDS011;35493;50.276;9.372;2023-02-28T06:28:37;4.57;;;2.65;;
49412;SDS011;35493;50.276;9.372;2023-02-28T06:31:07;7.68;;;2.55;;
49412;SDS011;35493;50.276;9.372;2023-02-28T06:33:36;5.82;;;2.50;;
49412;SDS011;35493;50.276;9.372;2023-02-28T06:36:04;5.72;;;2.58;;
49412;SDS011;35493;50.276;9.372;2023-02-28T06:38:32;5.93;;;2.58;;
49412;SDS011;35493;50.276;9.372;2023-02-28T06:41:00;6.10;;;2.72;;
49412;SDS011;35493;50.276;9.372;2023-02-28T06:43:28;7.00;;;2.25;;
49412;SDS011;35493;50.276;9.372;2023-02-28T06:45:58;5.00;;;2.72;;
49412;SDS011;35493;50.276;9.372;2023-02-28T06:48:28;6.05;;;2.38;;
49412;SDS011;35493;50.276;9.372;2023-02-28T06:51:00;6.18;;;2.50;;
49412;SDS011;35493;50.276;9.372;2023-02-28T06:53:29;5.68;;;2.55;;
49412;SDS011;35493;50.276;9.372;2023-02-28T06:55:56;6.18;;;2.38;;
49412;SDS011;35493;50.276;9.372;2023-02-28T06:58:23;9.68;;;3.15;;
49412;SDS011;35493;50.276;9.372;2023-02-28T07:00:51;6.47;;;2.72;;
49412;SDS011;35493;50.276;9.372;2023-02-28T07:03:19;6.72;;;2.50;;
49412;SDS011;35493;50.276;9.372;2023-02-28T07:05:46;7.05;;;3.33;;
49412;SDS011;35493;50.276;9.372;2023-02-28T07:08:13;6.32;;;2.83;;
49412;SDS011;35493;50.276;9.372;2023-02-28T07:10:40;4.72;;;2.22;;
49412;SDS011;35493;50.276;9.372;2023-02-28T07:13:08;7.93;;;2.90;;
49412;SDS011;35493;50.276;9.372;2023-02-28T07:15:35;6.57;;;2.80;;
49412;SDS011;35493;50.276;9.372;2023-02-28T07:18:04;6.05;;;2.50;;
49412;SDS011;35493;50.276;9.372;2023-02-28T07:20:31;6.25;;;2.72;;
49412;SDS011;35493;50.276;9.372;2023-02-28T07:22:58;5.22;;;2.50;;
49412;SDS011;35493;50.276;9.372;2023-02-28T07:25:27;5.55;;;2.45;;
49412;SDS011;35493;50.276;9.372;2023-02-28T07:27:55;4.93;;;2.53;;
49412;SDS011;35493;50.276;9.372;2023-02-28T07:30:24;5.13;;;2.55;;
49412;SDS011;35493;50.276;9.372;2023-02-28T07:32:51;6.15;;;3.42;;
49412;SDS011;35493;50.276;9.372;2023-02-28T07:35:21;5.80;;;2.85;;
49412;SDS011;35493;50.276;9.372;2023-02-28T07:37:48;4.80;;;2.60;;
49412;SDS011;35493;50.276;9.372;2023-02-28T07:40:15;6.07;;;2.97;;
49412;SDS011;35493;50.276;9.372;2023-02-28T07:42:43;4.85;;;2.40;;
49412;SDS011;35493;50.276;9.372;2023-02-28T07:45:10;4.88;;;2.65;;
49412;SDS011;35493;50.276;9.372;2023-02-28T07:47:40;5.38;;;2.85;;
49412;SDS011;35493;50.276;9.372;2023-02-28T07:50:09;5.97;;;2.97;;
49412;SDS011;35493;50.276;9.372;2023-02-28T07:52:39;5.63;;;2.65;;
49412;SDS011;35493;50.276;9.372;2023-02-28T07:55:07;4.63;;;2.70;;
49412;SDS011;35493;50.276;9.372;2023-02-28T07:57:35;6.72;;;3.17;;
49412;SDS011;35493;50.276;9.372;2023-02-28T08:00:02;6.53;;;3.20;;
49412;SDS011;35493;50.276;9.372;2023-02-28T08:02:36;6.93;;;3.35;;
49412;SDS011;35493;50.276;9.372;2023-02-28T08:05:03;7.00;;;2.80;;
49412;SDS011;35493;50.276;9.372;2023-02-28T08:07:31;6.20;;;3.10;;
49412;SDS011;35493;50.276;9.372;2023-02-28T08:10:00;6.32;;;2.78;;
49412;SDS011;35493;50.276;9.372;2023-02-28T08:12:29;5.43;;;3.30;;
49412;SDS011;35493;50.276;9.372;2023-02-28T08:14:57;4.85;;;2.67;;
49412;SDS011;35493;50.276;9.372;2023-02-28T08:17:24;6.05;;;3.22;;
49412;SDS011;35493;50.276;9.372;2023-02-28T08:19:51;5.88;;;2.70;;
49412;SDS011;35493;50.276;9.372;2023-02-28T08:22:18;7.63;;;3.53;;
49412;SDS011;35493;50.276;9.372;2023-02-28T08:24:45;4.82;;;3.00;;
49412;SDS011;35493;50.276;9.372;2023-02-28T08:27:13;6.55;;;3.47;;
49412;SDS011;35493;50.276;9.372;2023-02-28T08:29:40;7.30;;;2.85;;
49412;SDS011;35493;50.276;9.372;2023-02-28T08:32:07;5.65;;;3.08;;
49412;SDS011;35493;50.276;9.372;2023-02-28T08:34:34;5.32;;;2.90;;
49412;SDS011;35493;50.276;9.372;2023-02-28T08:37:00;6.03;;;3.60;;
49412;SDS011;35493;50.276;9.372;2023-02-28T08:39:27;6.72;;;3.38;;
49412;SDS011;35493;50.276;9.372;2023-02-28T08:41:54;6.20;;;3.05;;
49412;SDS011;35493;50.276;9.372;2023-02-28T08:44:22;6.20;;;3.25;;
49412;SDS011;35493;50.276;9.372;2023-02-28T08:46:49;6.72;;;3.30;;
49412;SDS011;35493;50.276;9.372;2023-02-28T08:49:16;6.50;;;3.38;;
49412;SDS011;35493;50.276;9.372;2023-02-28T08:51:43;9.02;;;3.72;;
49412;SDS011;35493;50.276;9.372;2023-02-28T08:54:11;7.45;;;3.30;;
49412;SDS011;35493;50.276;9.372;2023-02-28T08:56:39;7.97;;;3.55;;
49412;SDS011;35493;50.276;9.372;2023-02-28T08:59:08;7.75;;;3.70;;
49412;SDS011;35493;50.276;9.372;2023-02-28T09:01:37;8.05;;;3.50;;
49412;SDS011;35493;50.276;9.372;2023-02-28T09:04:04;8.02;;;3.55;;
49412;SDS011;35493;50.276;9.372;2023-02-28T09:06:33;6.07;;;3.35;;
49412;SDS011;35493;50.276;9.372;2023-02-28T09:09:00;7.97;;;4.13;;
49412;SDS011;35493;50.276;9.372;2023-02-28T09:11:29;7.20;;;3.75;;
49412;SDS011;35493;50.276;9.372;2023-02-28T09:13:57;6.97;;;3.60;;
49412;SDS011;35493;50.276;9.372;2023-02-28T09:16:27;8.00;;;3.25;;
49412;SDS011;35493;50.276;9.372;2023-02-28T09:18:55;5.43;;;2.80;;
49412;SDS011;35493;50.276;9.372;2023-02-28T09:21:22;4.50;;;2.42;;
49412;SDS011;35493;50.276;9.372;2023-02-28T09:23:50;6.25;;;3.15;;
49412;SDS011;35493;50.276;9.372;2023-02-28T09:26:18;5.88;;;2.90;;
49412;SDS011;35493;50.276;9.372;2023-02-28T09:28:46;6.05;;;2.72;;
49412;SDS011;35493;50.276;9.372;2023-02-28T09:31:13;6.07;;;2.80;;
49412;SDS011;35493;50.276;9.372;2023-02-28T09:33:41;5.25;;;2.83;;
49412;SDS011;35493;50.276;9.372;2023-02-28T09:36:09;5.30;;;2.72;;
49412;SDS011;35493;50.276;9.372;2023-02-28T09:38:36;5.88;;;2.95;;
49412;SDS011;35493;50.276;9.372;2023-02-28T09:41:04;5.03;;;2.63;;
49412;SDS011;35493;50.276;9.372;2023-02-28T09:43:40;5.40;;;3.03;;
49412;SDS011;35493;50.276;9.372;2023-02-28T09:46:14;5.85;;;2.97;;
49412;SDS011;35493;50.276;9.372;2023-02-28T09:48:52;4.95;;;2.33;;
49412;SDS011;35493;50.276;9.372;2023-02-28T09:51:30;6.28;;;3.08;;
49412;SDS011;35493;50.276;9.372;2023-02-28T09:54:08;5.28;;;2.72;;
49412;SDS011;35493;50.276;9.372;2023-02-28T09:56:44;5.75;;;2.90;;
49412;SDS011;35493;50.276;9.372;2023-02-28T09:59:19;5.53;;;2.90;;
49412;SDS011;35493;50.276;9.372;2023-02-28T10:02:01;6.30;;;2.70;;
49412;SDS011;35493;50.276;9.372;2023-02-28T10:04:36;7.32;;;2.63;;
49412;SDS011;35493;50.276;9.372;2023-02-28T10:07:14;5.20;;;2.53;;
49412;SDS011;35493;50.276;9.372;2023-02-28T10:09:50;5.45;;;2.95;;
49412;SDS011;35493;50.276;9.372;2023-02-28T10:12:20;5.07;;;2.92;;
49412;SDS011;35493;50.276;9.372;2023-02-28T10:14:49;5.38;;;2.97;;
49412;SDS011;35493;50.276;9.372;2023-02-28T10:17:19;6.97;;;3.05;;
49412;SDS011;35493;50.276;9.372;2023-02-28T10:19:50;5.68;;;2.90;;
49412;SDS011;35493;50.276;9.372;2023-02-28T10:22:29;5.53;;;2.63;;
49412;SDS011;35493;50.276;9.372;2023-02-28T10:25:00;4.05;;;2.60;;
49412;SDS011;35493;50.276;9.372;2023-02-28T10:27:29;6.28;;;3.22;;
49412;SDS011;35493;50.276;9.372;2023-02-28T10:29:58;5.60;;;3.60;;
49412;SDS011;35493;50.276;9.372;2023-02-28T10:32:27;7.97;;;3.70;;
49412;SDS011;35493;50.276;9.372;2023-02-28T10:34:57;4.97;;;2.90;;
49412;SDS011;35493;50.276;9.372;2023-02-28T10:37:28;5.30;;;2.95;;
49412;SDS011;35493;50.276;9.372;2023-02-28T10:39:56;5.78;;;3.03;;
49412;SDS011;35493;50.276;9.372;2023-02-28T10:42:24;5.78;;;3.17;;
49412;SDS011;35493;50.276;9.372;2023-02-28T10:45:04;6.00;;;3.03;;
49412;SDS011;35493;50.276;9.372;2023-02-28T10:47:37;5.10;;;2.67;;
49412;SDS011;35493;50.276;9.372;2023-02-28T10:50:26;5.53;;;3.05;;
49412;SDS011;35493;50.276;9.372;2023-02-28T10:52:56;6.10;;;2.97;;
49412;SDS011;35493;50.276;9.372;2023-02-28T10:55:34;6.38;;;3.10;;
49412;SDS011;35493;50.276;9.372;2023-02-28T10:58:02;5.30;;;2.80;;
49412;SDS011;35493;50.276;9.372;2023-02-28T11:00:31;6.97;;;3.40;;
49412;SDS011;35493;50.276;9.372;2023-02-28T11:02:59;6.05;;;3.17;;
49412;SDS011;35493;50.276;9.372;2023-02-28T11:05:28;6.65;;;3.45;;
49412;SDS011;35493;50.276;9.372;2023-02-28T11:07:59;6.93;;;3.65;;
49412;SDS011;35493;50.276;9.372;2023-02-28T11:10:32;5.40;;;2.92;;
49412;SDS011;35493;50.276;9.372;2023-02-28T11:13:00;5.40;;;2.90;;
49412;SDS011;35493;50.276;9.372;2023-02-28T11:15:32;5.22;;;3.03;;
49412;SDS011;35493;50.276;9.372;2023-02-28T11:18:00;6.30;;;3.20;;
49412;SDS011;35493;50.276;9.372;2023-02-28T11:20:34;6.80;;;3.13;;
49412;SDS011;35493;50.276;9.372;2023-02-28T11:23:11;7.03;;;3.45;;
49412;SDS011;35493;50.276;9.372;2023-02-28T11:25:40;6.60;;;2.95;;
49412;SDS011;35493;50.276;9.372;2023-02-28T11:28:25;6.28;;;3.17;;
49412;SDS011;35493;50.276;9.372;2023-02-28T11:31:00;5.70;;;2.95;;
49412;SDS011;35493;50.276;9.372;2023-02-28T11:33:29;5.57;;;2.80;;
49412;SDS011;35493;50.276;9.372;2023-02-28T11:35:58;5.38;;;3.03;;
49412;SDS011;35493;50.276;9.372;2023-02-28T11:38:29;6.65;;;3.13;;
49412;SDS011;35493;50.276;9.372;2023-02-28T11:41:03;6.15;;;2.90;;
49412;SDS011;35493;50.276;9.372;2023-02-28T11:43:42;5.65;;;2.83;;
49412;SDS011;35493;50.276;9.372;2023-02-28T11:46:23;6.13;;;3.15;;
49412;SDS011;35493;50.276;9.372;2023-02-28T11:49:01;5.15;;;2.88;;
49412;SDS011;35493;50.276;9.372;2023-02-28T11:51:34;6.38;;;3.15;;
49412;SDS011;35493;50.276;9.372;2023-02-28T11:54:11;6.13;;;2.95;;
49412;SDS011;35493;50.276;9.372;2023-02-28T11:56:54;6.22;;;3.63;;
49412;SDS011;35493;50.276;9.372;2023-02-28T11:59:36;6.07;;;2.88;;
49412;SDS011;35493;50.276;9.372;2023-02-28T12:02:20;5.97;;;3.38;;
49412;SDS011;35493;50.276;9.372;2023-02-28T12:04:55;5.85;;;3.50;;
49412;SDS011;35493;50.276;9.372;2023-02-28T12:07:32;7.40;;;3.05;;
49412;SDS011;35493;50.276;9.372;2023-02-28T12:10:13;5.53;;;3.10;;
49412;SDS011;35493;50.276;9.372;2023-02-28T12:12:48;5.72;;;2.78;;
49412;SDS011;35493;50.276;9.372;2023-02-28T12:15:41;7.97;;;3.80;;
49412;SDS011;35493;50.276;9.372;2023-02-28T12:18:39;6.03;;;2.80;;
49412;SDS011;35493;50.276;9.372;2023-02-28T12:21:18;6.10;;;3.30;;
49412;SDS011;35493;50.276;9.372;2023-02-28T12:23:57;5.95;;;3.20;;
49412;SDS011;35493;50.276;9.372;2023-02-28T12:26:38;5.78;;;3.17;;
49412;SDS011;35493;50.276;9.372;2023-02-28T12:29:10;5.57;;;3.17;;
49412;SDS011;35493;50.276;9.372;2023-02-28T12:31:41;8.25;;;3.38;;
49412;SDS011;35493;50.276;9.372;2023-02-28T12:34:13;7.22;;;3.30;;
49412;SDS011;35493;50.276;9.372;2023-02-28T12:36:45;6.72;;;3.13;;
49412;SDS011;35493;50.276;9.372;2023-02-28T12:39:15;4.90;;;2.53;;
49412;SDS011;35493;50.276;9.372;2023-02-28T12:41:51;5.85;;;3.00;;
49412;SDS011;35493;50.276;9.372;2023-02-28T12:44:21;6.03;;;2.90;;
49412;SDS011;35493;50.276;9.372;2023-02-28T12:46:55;6.63;;;3.25;;
49412;SDS011;35493;50.276;9.372;2023-02-28T12:49:33;7.43;;;3.10;;
49412;SDS011;35493;50.276;9.372;2023-02-28T12:52:04;6.47;;;3.17;;
49412;SDS011;35493;50.276;9.372;2023-02-28T12:54:37;5.40;;;2.88;;
49412;SDS011;35493;50.276;9.372;2023-02-28T12:57:14;5.60;;;2.90;;
49412;SDS011;35493;50.276;9.372;2023-02-28T12:59:45;6.78;;;3.50;;
49412;SDS011;35493;50.276;9.372;2023-02-28T13:02:21;7.97;;;3.97;;
49412;SDS011;35493;50.276;9.372;2023-02-28T13:05:07;8.50;;;4.75;;
49412;SDS011;35493;50.276;9.372;2023-02-28T13:08:04;7.82;;;4.22;;
49412;SDS011;35493;50.276;9.372;2023-02-28T13:11:03;8.65;;;4.57;;
49412;SDS011;35493;50.276;9.372;2023-02-28T13:13:31;8.57;;;3.60;;
49412;SDS011;35493;50.276;9.372;2023-02-28T13:15:59;6.90;;;3.78;;
49412;SDS011;35493;50.276;9.372;2023-02-28T13:18:35;7.40;;;4.17;;
49412;SDS011;35493;50.276;9.372;2023-02-28T13:21:05;6.20;;;3.70;;
49412;SDS011;35493;50.276;9.372;2023-02-28T13:29:58;8.07;;;3.38;;
49412;SDS011;35493;50.276;9.372;2023-02-28T13:32:29;6.68;;;3.05;;
49412;SDS011;35493;50.276;9.372;2023-02-28T13:38:32;7.70;;;3.33;;
49412;SDS011;35493;50.276;9.372;2023-02-28T13:44:20;5.45;;;3.00;;
49412;SDS011;35493;50.276;9.372;2023-02-28T13:49:48;6.00;;;3.10;;
49412;SDS011;35493;50.276;9.372;2023-02-28T13:52:17;7.05;;;3.40;;
49412;SDS011;35493;50.276;9.372;2023-02-28T13:55:21;8.77;;;3.75;;
49412;SDS011;35493;50.276;9.372;2023-02-28T13:57:56;6.72;;;3.30;;
49412;SDS011;35493;50.276;9.372;2023-02-28T14:00:41;7.95;;;3.63;;
49412;SDS011;35493;50.276;9.372;2023-02-28T14:03:22;7.47;;;3.42;;
49412;SDS011;35493;50.276;9.372;2023-02-28T14:06:08;7.57;;;3.60;;
49412;SDS011;35493;50.276;9.372;2023-02-28T14:08:45;6.50;;;3.20;;
49412;SDS011;35493;50.276;9.372;2023-02-28T14:11:29;6.20;;;3.28;;
49412;SDS011;35493;50.276;9.372;2023-02-28T14:13:57;4.65;;;2.67;;
49412;SDS011;35493;50.276;9.372;2023-02-28T14:16:27;5.55;;;3.13;;
49412;SDS011;35493;50.276;9.372;2023-02-28T14:19:09;6.72;;;3.22;;
49412;SDS011;35493;50.276;9.372;2023-02-28T14:21:40;6.13;;;2.80;;
49412;SDS011;35493;50.276;9.372;2023-02-28T14:24:23;6.57;;;3.22;;
49412;SDS011;35493;50.276;9.372;2023-02-28T14:27:12;5.88;;;2.95;;
49412;SDS011;35493;50.276;9.372;2023-02-28T14:30:09;6.40;;;3.30;;
49412;SDS011;35493;50.276;9.372;2023-02-28T14:33:08;6.72;;;3.10;;
49412;SDS011;35493;50.276;9.372;2023-02-28T14:35:53;7.60;;;3.30;;
49412;SDS011;35493;50.276;9.372;2023-02-28T14:38:29;6.50;;;3.25;;
49412;SDS011;35493;50.276;9.372;2023-02-28T14:40:58;6.90;;;3.10;;
49412;SDS011;35493;50.276;9.372;2023-02-28T14:43:31;6.35;;;3.47;;
49412;SDS011;35493;50.276;9.372;2023-02-28T14:45:59;6.88;;;3.63;;
49412;SDS011;35493;50.276;9.372;2023-02-28T14:48:28;5.88;;;3.25;;
49412;SDS011;35493;50.276;9.372;2023-02-28T14:51:06;6.30;;;3.35;;
49412;SDS011;35493;50.276;9.372;2023-02-28T14:53:36;7.47;;;3.40;;
49412;SDS011;35493;50.276;9.372;2023-02-28T14:56:04;7.82;;;3.47;;
49412;SDS011;35493;50.276;9.372;2023-02-28T14:58:32;5.55;;;3.10;;
49412;SDS011;35493;50.276;9.372;2023-02-28T15:01:01;5.35;;;2.90;;
49412;SDS011;35493;50.276;9.372;2023-02-28T15:03:30;6.88;;;3.03;;
49412;SDS011;35493;50.276;9.372;2023-02-28T15:05:59;5.18;;;2.53;;
49412;SDS011;35493;50.276;9.372;2023-02-28T15:08:29;5.00;;;2.70;;
49412;SDS011;35493;50.276;9.372;2023-02-28T15:11:01;6.57;;;2.85;;
49412;SDS011;35493;50.276;9.372;2023-02-28T15:13:31;5.43;;;3.33;;
49412;SDS011;35493;50.276;9.372;2023-02-28T15:16:03;7.57;;;3.50;;
49412;SDS011;35493;50.276;9.372;2023-02-28T15:18:39;6.88;;;3.42;;
49412;SDS011;35493;50.276;9.372;2023-02-28T15:21:12;7.40;;;3.40;;
49412;SDS011;35493;50.276;9.372;2023-02-28T15:23:43;6.13;;;2.97;;
49412;SDS011;35493;50.276;9.372;2023-02-28T15:26:13;6.40;;;3.05;;
49412;SDS011;35493;50.276;9.372;2023-02-28T15:28:42;7.18;;;3.50;;
49412;SDS011;35493;50.276;9.372;2023-02-28T15:31:18;7.32;;;3.30;;
49412;SDS011;35493;50.276;9.372;2023-02-28T15:33:54;6.20;;;3.38;;
49412;SDS011;35493;50.276;9.372;2023-02-28T15:36:24;6.50;;;3.30;;